Time;durP1;ratioP1;P1;durP2;ratioP2;P2;SDS_P1;SDS_P2;PMS_P1;PMS_P2;Temp;Humidity;BMP_temperature;BMP_pressure;BME280_temperature;BME280_humidity;BME280_pressure;Samples;Min_cycle;Max_cycle;Signal;HPM_P1;HPM_P2
2021/04/09 00:01:42;;;;;;;10.57;3.35;;;;;;;18.60;36.89;101150.44;4976385;28;20085;-94
2021/04/09 00:04:07;;;;;;;10.27;3.05;;;;;;;18.57;36.99;101154.69;4976205;28;20473;-94
2021/04/09 00:06:33;;;;;;;10.82;3.75;;;;;;;18.63;37.08;101158.00;4976300;28;20038;-78
2021/04/09 00:08:59;;;;;;;16.35;3.38;;;;;;;18.47;37.33;101159.97;4975949;28;20393;-82
2021/04/09 00:11:25;;;;;;;11.02;3.42;;;;;;;18.51;37.05;101152.56;4976154;28;20030;-82
2021/04/09 00:13:51;;;;;;;14.32;4.30;;;;;;;18.39;37.49;101152.66;4975975;28;20027;-78
2021/04/09 00:16:16;;;;;;;10.98;3.63;;;;;;;18.41;37.35;101151.13;4976470;28;20449;-95
2021/04/09 00:18:42;;;;;;;18.85;4.90;;;;;;;18.44;37.26;101146.84;4975981;28;20030;-85
2021/04/09 00:21:08;;;;;;;16.00;3.10;;;;;;;18.38;37.64;101156.59;4976424;28;20041;-78
2021/04/09 00:23:34;;;;;;;12.50;3.55;;;;;;;18.43;37.20;101154.34;4976208;28;20401;-78
2021/04/09 00:26:00;;;;;;;19.23;4.45;;;;;;;18.42;37.20;101149.97;4975859;28;20570;-77
2021/04/09 00:28:26;;;;;;;10.80;3.63;;;;;;;18.43;37.27;101153.53;4975710;28;20070;-83
2021/04/09 00:30:52;;;;;;;10.15;3.63;;;;;;;18.38;37.38;101153.81;4974716;28;20073;-78
2021/04/09 00:33:17;;;;;;;15.07;4.60;;;;;;;18.43;37.24;101148.00;4975728;28;20027;-78
2021/04/09 00:35:43;;;;;;;11.18;4.38;;;;;;;18.35;37.40;101149.78;4975667;28;20037;-77
2021/04/09 00:38:10;;;;;;;11.20;3.70;;;;;;;18.30;37.38;101152.81;4975780;28;20026;-83
2021/04/09 00:40:36;;;;;;;16.75;4.28;;;;;;;18.25;37.61;101159.41;4975542;28;20026;-85
2021/04/09 00:43:03;;;;;;;11.32;3.20;;;;;;;18.34;37.33;101144.59;4975608;28;20097;-78
2021/04/09 00:45:31;;;;;;;16.88;4.43;;;;;;;18.36;37.33;101145.03;4975734;28;20371;-77
2021/04/09 00:47:57;;;;;;;14.48;4.15;;;;;;;18.37;37.36;101147.47;4975360;28;20556;-78
2021/04/09 00:50:22;;;;;;;12.35;3.45;;;;;;;18.32;37.33;101152.47;4975480;28;20039;-84
2021/04/09 00:52:49;;;;;;;12.15;3.38;;;;;;;18.29;37.43;101152.03;4975425;28;20031;-77
2021/04/09 00:55:16;;;;;;;14.73;3.67;;;;;;;18.33;37.49;101145.78;4975696;28;20482;-78
2021/04/09 00:57:42;;;;;;;11.88;3.88;;;;;;;18.27;37.56;101148.00;4975592;28;20026;-77
2021/04/09 01:00:11;;;;;;;15.65;4.65;;;;;;;18.15;37.61;101156.38;4974292;28;20023;-86
2021/04/09 01:02:37;;;;;;;19.33;3.80;;;;;;;18.21;37.65;101154.94;4974095;28;20191;-91
2021/04/09 01:05:09;;;;;;;12.65;4.15;;;;;;;18.14;37.68;101150.03;4973842;28;20034;-78
2021/04/09 01:07:34;;;;;;;9.13;3.30;;;;;;;18.19;37.71;101149.75;4973830;28;20077;-90
2021/04/09 01:10:02;;;;;;;14.02;4.00;;;;;;;18.24;37.62;101145.94;4974253;28;20494;-85
2021/04/09 01:12:28;;;;;;;11.13;3.28;;;;;;;18.17;37.47;101149.31;4975150;28;20370;-77
2021/04/09 01:14:53;;;;;;;12.13;3.72;;;;;;;18.17;37.68;101152.09;4975124;28;20029;-83
2021/04/09 01:17:46;;;;;;;12.43;3.85;;;;;;;18.18;37.56;101153.69;4975105;28;20055;-83
2021/04/09 01:20:27;;;;;;;10.15;3.65;;;;;;;18.22;37.66;101151.84;4975320;28;20466;-78
2021/04/09 01:23:35;;;;;;;18.23;3.80;;;;;;;18.02;37.76;101159.19;4974865;28;20026;-83
2021/04/09 01:26:07;;;;;;;13.73;3.30;;;;;;;17.97;37.97;101148.38;4975914;28;20035;-93
2021/04/09 01:28:35;;;;;;;15.63;4.80;;;;;;;18.07;37.78;101151.81;4974228;28;20501;-78
2021/04/09 01:31:23;;;;;;;9.52;3.53;;;;;;;17.99;37.88;101150.81;4973325;28;20034;-84
2021/04/09 01:33:55;;;;;;;16.55;4.25;;;;;;;18.12;37.70;101154.31;4972273;28;20096;-82
2021/04/09 01:36:26;;;;;;;12.88;3.10;;;;;;;18.17;37.70;101152.09;4974929;28;20030;-78
2021/04/09 01:39:05;;;;;;;15.73;3.65;;;;;;;18.15;37.56;101148.06;4974834;28;20125;-77
2021/04/09 01:41:32;;;;;;;13.60;3.57;;;;;;;18.02;38.17;101155.63;4973635;28;20078;-78
2021/04/09 01:44:01;;;;;;;10.30;2.95;;;;;;;18.04;37.83;101150.53;4975397;28;20272;-92
2021/04/09 01:46:27;;;;;;;15.77;4.60;;;;;;;18.01;37.98;101143.75;4975063;28;20101;-78
2021/04/09 01:48:54;;;;;;;15.13;4.28;;;;;;;18.03;37.82;101137.88;4974621;28;20042;-77
2021/04/09 01:51:20;;;;;;;13.18;4.10;;;;;;;17.92;38.21;101145.09;4975251;28;20035;-85
2021/04/09 01:53:47;;;;;;;15.48;4.40;;;;;;;17.95;38.04;101133.31;4975501;28;20023;-78
2021/04/09 01:56:16;;;;;;;15.85;4.70;;;;;;;17.84;38.19;101137.75;4975168;28;20027;-93
2021/04/09 01:58:43;;;;;;;14.38;3.75;;;;;;;17.94;37.87;101131.72;4974990;28;20445;-78
2021/04/09 02:01:13;;;;;;;14.93;4.15;;;;;;;17.93;37.92;101127.34;4974500;28;20027;-77
2021/04/09 02:03:42;;;;;;;8.70;3.30;;;;;;;17.83;38.00;101131.41;4974960;28;20039;-79
2021/04/09 02:06:09;;;;;;;19.15;4.72;;;;;;;17.84;38.01;101132.22;4974578;28;20085;-78
2021/04/09 02:08:36;;;;;;;13.48;4.25;;;;;;;17.71;38.20;101118.44;4974279;28;20030;-78
2021/04/09 02:11:03;;;;;;;11.90;4.03;;;;;;;17.57;38.44;101120.78;4974491;28;20033;-77
2021/04/09 02:13:30;;;;;;;19.88;4.32;;;;;;;17.70;38.14;101127.91;4973180;28;20027;-78
2021/04/09 02:15:57;;;;;;;13.70;4.18;;;;;;;17.66;38.41;101126.16;4973931;28;20034;-78
2021/04/09 02:18:26;;;;;;;13.00;4.45;;;;;;;17.59;38.33;101129.50;4974310;28;20054;-78
2021/04/09 02:20:52;;;;;;;15.07;3.90;;;;;;;17.59;38.35;101132.28;4974457;28;20027;-79
2021/04/09 02:23:18;;;;;;;19.90;4.93;;;;;;;17.60;38.43;101138.59;4974261;28;20447;-78
2021/04/09 02:25:44;;;;;;;8.95;3.53;;;;;;;17.58;38.16;101133.44;4974877;28;20027;-77
2021/04/09 02:28:10;;;;;;;14.18;4.47;;;;;;;17.56;38.50;101135.75;4974651;28;20049;-78
2021/04/09 02:30:35;;;;;;;18.73;5.05;;;;;;;17.55;38.50;101136.09;4974116;28;20493;-77
2021/04/09 02:33:01;;;;;;;12.73;3.95;;;;;;;17.64;38.24;101134.00;4975910;28;20030;-89
2021/04/09 02:35:27;;;;;;;14.98;4.07;;;;;;;17.62;38.21;101136.31;4980574;28;20023;-92
2021/04/09 02:37:53;;;;;;;16.92;4.03;;;;;;;17.74;37.81;101137.06;4980031;28;20034;-78
2021/04/09 02:40:29;;;;;;;12.55;4.20;;;;;;;17.54;38.52;101143.59;4980688;28;20422;-81
2021/04/09 02:42:55;;;;;;;13.18;3.63;;;;;;;17.55;38.52;101136.09;4981162;28;20367;-77
2021/04/09 02:45:23;;;;;;;18.90;5.20;;;;;;;17.50;38.41;101139.91;4980655;28;20023;-87
2021/04/09 02:47:50;;;;;;;12.13;4.22;;;;;;;17.55;38.37;101136.91;4980832;28;20054;-78
2021/04/09 02:50:45;;;;;;;11.77;4.00;;;;;;;17.50;38.54;101128.84;4980921;28;20019;-79
2021/04/09 02:53:20;;;;;;;20.15;5.28;;;;;;;17.43;38.74;101132.22;4980244;28;20098;-83
2021/04/09 02:55:48;;;;;;;20.27;6.13;;;;;;;17.41;38.73;101134.53;4980583;28;20077;-78
2021/04/09 02:58:16;;;;;;;24.30;5.20;;;;;;;17.29;38.92;101133.75;4979200;28;20375;-77
2021/04/09 03:00:50;;;;;;;15.60;4.55;;;;;;;17.33;38.69;101131.91;4980168;28;20030;-83
2021/04/09 03:03:17;;;;;;;18.65;4.90;;;;;;;17.37;38.77;101122.56;4980669;28;20436;-78
2021/04/09 03:05:43;;;;;;;15.05;4.03;;;;;;;17.37;38.69;101124.50;4980969;28;20058;-77
2021/04/09 03:08:12;;;;;;;13.40;4.20;;;;;;;17.16;39.17;101131.03;4980621;28;20031;-92
2021/04/09 03:10:38;;;;;;;18.00;5.47;;;;;;;17.30;38.76;101124.31;4980155;28;20437;-77
2021/04/09 03:13:04;;;;;;;19.27;3.83;;;;;;;17.32;38.87;101124.78;4980772;28;20031;-78
2021/04/09 03:15:46;;;;;;;10.98;3.92;;;;;;;17.36;38.55;101122.91;4980600;28;20397;-81
2021/04/09 03:18:12;;;;;;;14.70;4.60;;;;;;;17.37;38.62;101125.31;4980635;28;20034;-77
2021/04/09 03:20:41;;;;;;;14.65;4.20;;;;;;;17.32;38.78;101120.06;4981546;28;20389;-78
2021/04/09 03:23:07;;;;;;;25.50;5.43;;;;;;;17.33;38.65;101115.34;4980351;28;20085;-77
2021/04/09 03:25:33;;;;;;;18.77;4.15;;;;;;;17.34;38.46;101123.25;4980278;28;20026;-90
2021/04/09 03:27:59;;;;;;;15.13;4.63;;;;;;;17.39;38.52;101120.28;4980605;28;20038;-91
2021/04/09 03:30:25;;;;;;;19.23;4.70;;;;;;;17.41;38.41;101117.94;4979355;28;20019;-77
2021/04/09 03:32:51;;;;;;;19.60;5.25;;;;;;;17.38;38.42;101121.44;4980333;28;20023;-78
2021/04/09 03:35:18;;;;;;;15.15;4.28;;;;;;;17.37;38.36;101119.78;4980058;28;20030;-90
2021/04/09 03:37:44;;;;;;;21.27;5.47;;;;;;;17.40;38.22;101124.63;4980328;28;20033;-79
2021/04/09 03:40:10;;;;;;;17.52;5.10;;;;;;;17.29;38.61;101120.75;4980399;28;20396;-77
2021/04/09 03:42:37;;;;;;;19.85;4.60;;;;;;;17.30;38.78;101116.00;4979453;28;20026;-79
2021/04/09 03:45:04;;;;;;;18.98;5.07;;;;;;;17.25;38.56;101119.03;4976234;28;20426;-78
2021/04/09 03:47:30;;;;;;;16.25;4.28;;;;;;;17.30;38.39;101116.00;4977435;28;20193;-77
2021/04/09 03:49:56;;;;;;;14.85;5.03;;;;;;;17.25;38.43;101114.31;4976222;28;20493;-77
2021/04/09 03:52:22;;;;;;;21.75;5.30;;;;;;;17.23;38.41;101119.41;4976590;28;20133;-77
2021/04/09 03:54:48;;;;;;;19.40;4.43;;;;;;;17.19;38.47;101119.28;4976355;28;20504;-90
2021/04/09 03:57:13;;;;;;;13.48;4.22;;;;;;;17.16;38.54;101117.22;4977459;28;20157;-79
2021/04/09 03:59:39;;;;;;;19.90;5.38;;;;;;;17.06;38.56;101108.59;4977628;28;20039;-78
2021/04/09 04:02:05;;;;;;;22.83;5.20;;;;;;;16.98;38.79;101112.28;4977146;28;20075;-95
2021/04/09 04:04:30;;;;;;;23.25;5.45;;;;;;;17.00;38.60;101118.25;4977622;28;20127;-82
2021/04/09 04:06:56;;;;;;;12.15;4.30;;;;;;;17.01;38.49;101125.41;4975889;28;20035;-83
2021/04/09 04:09:22;;;;;;;14.07;5.10;;;;;;;16.91;38.85;101132.19;4977800;28;20158;-80
2021/04/09 04:11:47;;;;;;;16.58;4.78;;;;;;;16.82;38.71;101128.75;4976066;28;20035;-78
2021/04/09 04:14:13;;;;;;;23.48;5.55;;;;;;;16.82;38.42;101126.00;4975890;28;20486;-80
2021/04/09 04:16:39;;;;;;;15.05;3.80;;;;;;;16.76;38.72;101128.16;4977101;28;20130;-78
2021/04/09 04:19:04;;;;;;;26.30;5.30;;;;;;;16.72;38.76;101126.47;4977870;28;20037;-77
2021/04/09 04:21:30;;;;;;;15.13;4.45;;;;;;;16.73;38.90;101128.06;4977109;28;20053;-90
2021/04/09 04:23:56;;;;;;;19.23;4.80;;;;;;;16.56;39.00;101135.41;4977175;28;20037;-77
2021/04/09 04:26:22;;;;;;;21.73;6.82;;;;;;;16.56;38.90;101140.91;4977248;28;20031;-78
2021/04/09 04:28:47;;;;;;;18.08;4.75;;;;;;;16.50;38.79;101135.97;4975585;28;20474;-88
2021/04/09 04:31:14;;;;;;;22.38;5.50;;;;;;;16.45;38.78;101133.41;4977227;28;20038;-77
2021/04/09 04:33:40;;;;;;;12.43;3.58;;;;;;;16.46;38.63;101135.81;4977237;28;20489;-82
2021/04/09 04:36:05;;;;;;;36.03;5.40;;;;;;;16.35;38.95;101140.19;4975773;28;20042;-81
2021/04/09 04:38:31;;;;;;;23.65;4.30;;;;;;;16.32;38.99;101132.59;4976136;28;20109;-78
2021/04/09 04:40:58;;;;;;;13.68;4.25;;;;;;;16.32;38.92;101138.09;4976955;28;20023;-94
2021/04/09 04:43:23;;;;;;;16.85;5.03;;;;;;;16.30;38.86;101141.19;4976042;28;20030;-78
2021/04/09 04:45:51;;;;;;;14.30;3.83;;;;;;;16.19;39.13;101130.97;4976941;28;20030;-78
2021/04/09 04:48:17;;;;;;;22.17;4.18;;;;;;;16.23;38.72;101138.19;4976213;28;20047;-79
2021/04/09 04:50:43;;;;;;;18.30;4.22;;;;;;;16.25;38.61;101133.16;4976504;28;20085;-79
2021/04/09 04:53:09;;;;;;;17.85;5.65;;;;;;;16.07;38.98;101140.81;4977574;28;20102;-78
2021/04/09 04:55:35;;;;;;;17.63;5.18;;;;;;;15.98;39.16;101144.81;4976541;28;20035;-79
2021/04/09 04:58:00;;;;;;;19.77;4.30;;;;;;;15.92;39.30;101148.91;4976012;28;20383;-77
2021/04/09 05:00:26;;;;;;;17.33;4.07;;;;;;;15.96;38.81;101152.59;4958315;28;20030;-93
2021/04/09 05:02:52;;;;;;;17.58;4.95;;;;;;;15.91;38.91;101150.88;4976474;28;20031;-77
2021/04/09 05:05:18;;;;;;;19.55;5.50;;;;;;;15.66;39.17;101151.91;4975704;28;20042;-91
2021/04/09 05:07:44;;;;;;;21.70;5.30;;;;;;;15.69;39.15;101151.22;4975380;28;20481;-82
2021/04/09 05:10:10;;;;;;;15.07;4.35;;;;;;;15.70;39.03;101153.63;4975472;28;20110;-79
2021/04/09 05:12:35;;;;;;;18.45;4.25;;;;;;;15.57;39.29;101149.19;4974170;28;20038;-76
2021/04/09 05:15:01;;;;;;;15.75;4.47;;;;;;;15.60;39.07;101143.00;4975382;28;20026;-76
2021/04/09 05:17:27;;;;;;;16.30;4.65;;;;;;;15.51;39.31;101134.81;4975061;28;20031;-76
2021/04/09 05:19:52;;;;;;;14.70;3.97;;;;;;;15.51;39.14;101140.34;4975280;28;20478;-76
2021/04/09 05:22:19;;;;;;;16.77;3.97;;;;;;;15.54;39.30;101139.66;4974873;28;20474;-77
2021/04/09 05:24:48;;;;;;;20.70;5.35;;;;;;;15.54;39.00;101141.59;4975028;28;20030;-82
2021/04/09 05:27:14;;;;;;;19.77;4.80;;;;;;;15.41;39.28;101148.16;4974669;28;20088;-76
2021/04/09 05:29:40;;;;;;;14.32;4.18;;;;;;;15.40;39.15;101152.88;4974060;28;20038;-76
2021/04/09 05:32:10;;;;;;;14.10;4.10;;;;;;;15.28;38.77;101155.56;4974790;28;20041;-76
2021/04/09 05:34:37;;;;;;;15.73;4.43;;;;;;;15.18;39.00;101155.94;4974809;28;20458;-76
2021/04/09 05:37:03;;;;;;;13.65;4.90;;;;;;;15.13;38.97;101164.41;4973457;28;20070;-77
2021/04/09 05:39:29;;;;;;;16.48;4.70;;;;;;;15.03;39.16;101156.53;4975110;28;20057;-80
2021/04/09 05:41:55;;;;;;;21.20;6.72;;;;;;;14.98;39.23;101158.34;4974550;28;20062;-76
2021/04/09 05:44:21;;;;;;;19.60;4.85;;;;;;;15.02;39.15;101152.16;4974549;28;20027;-77
2021/04/09 05:46:47;;;;;;;21.77;5.00;;;;;;;15.02;39.64;101160.41;4973144;28;20107;-76
2021/04/09 05:49:13;;;;;;;24.60;5.60;;;;;;;15.02;39.42;101161.22;4975151;28;20110;-77
2021/04/09 05:51:39;;;;;;;11.30;4.20;;;;;;;15.03;39.35;101159.28;4973335;28;20046;-82
2021/04/09 05:54:04;;;;;;;15.52;4.97;;;;;;;15.11;39.48;101161.16;4974050;28;20035;-82
2021/04/09 05:56:30;;;;;;;12.98;5.35;;;;;;;14.99;39.58;101157.19;4972932;28;20034;-77
2021/04/09 05:58:58;;;;;;;19.20;5.10;;;;;;;15.03;39.42;101151.03;4972069;28;20031;-78
2021/04/09 06:01:23;;;;;;;16.02;4.43;;;;;;;14.95;39.60;101160.94;4973188;28;20023;-76
2021/04/09 06:03:49;;;;;;;16.02;6.68;;;;;;;14.94;39.61;101151.06;4974145;28;20029;-79
2021/04/09 06:06:15;;;;;;;20.00;5.18;;;;;;;15.06;39.63;101158.63;4974635;28;20046;-81
2021/04/09 06:08:41;;;;;;;15.82;4.07;;;;;;;14.91;39.87;101163.56;4973503;28;20063;-82
2021/04/09 06:11:07;;;;;;;20.45;5.13;;;;;;;14.93;39.84;101158.53;4974669;28;20098;-76
2021/04/09 06:13:33;;;;;;;16.17;4.60;;;;;;;15.01;39.72;101161.56;4974231;28;20073;-78
2021/04/09 06:15:59;;;;;;;14.88;4.72;;;;;;;14.94;39.87;101162.88;4973546;28;20232;-76
2021/04/09 06:18:25;;;;;;;18.98;5.65;;;;;;;15.03;39.79;101162.03;4973042;28;20066;-78
2021/04/09 06:20:51;;;;;;;15.02;4.82;;;;;;;15.16;39.59;101167.28;4974161;28;20026;-76
2021/04/09 06:23:17;;;;;;;23.15;5.95;;;;;;;14.99;40.09;101168.22;4974532;28;20507;-80
2021/04/09 06:25:42;;;;;;;13.23;4.25;;;;;;;15.22;39.40;101171.47;4974713;28;20612;-82
2021/04/09 06:28:09;;;;;;;14.07;5.22;;;;;;;15.04;40.03;101177.41;4973741;28;20085;-80
2021/04/09 06:30:34;;;;;;;17.02;5.40;;;;;;;15.14;39.68;101182.53;4974346;28;20026;-76
2021/04/09 06:33:00;;;;;;;13.13;4.30;;;;;;;15.15;39.75;101186.91;4973804;28;20074;-76
2021/04/09 06:35:26;;;;;;;14.23;5.22;;;;;;;15.27;39.46;101187.00;4974031;28;20070;-77
2021/04/09 06:37:52;;;;;;;16.10;5.15;;;;;;;15.28;39.65;101191.38;4973868;28;20382;-77
2021/04/09 06:40:19;;;;;;;20.95;4.38;;;;;;;15.31;39.50;101189.88;4971456;28;20023;-77
2021/04/09 06:42:45;;;;;;;16.83;4.30;;;;;;;15.33;39.77;101182.09;4974152;28;20023;-77
2021/04/09 06:45:12;;;;;;;19.58;4.65;;;;;;;15.40;39.79;101193.38;4973870;28;20023;-76
2021/04/09 06:47:38;;;;;;;14.13;4.22;;;;;;;15.33;40.17;101187.59;4973497;28;20106;-81
2021/04/09 06:50:05;;;;;;;14.75;4.60;;;;;;;15.63;39.59;101196.63;4974013;28;20526;-76
2021/04/09 06:52:31;;;;;;;16.27;5.35;;;;;;;15.71;39.33;101198.53;4973245;28;20569;-83
2021/04/09 06:54:59;;;;;;;20.05;4.72;;;;;;;15.80;39.33;101204.78;4973735;28;20035;-76
2021/04/09 06:57:27;;;;;;;17.25;4.93;;;;;;;15.88;39.52;101205.84;4973619;28;20029;-76
2021/04/09 06:59:57;;;;;;;12.75;4.80;;;;;;;16.02;39.14;101212.69;4966991;28;20041;-77
2021/04/09 07:02:22;;;;;;;19.80;7.93;;;;;;;16.17;39.00;101215.94;4959931;28;20019;-79
2021/04/09 07:04:48;;;;;;;24.65;5.03;;;;;;;16.07;39.25;101209.72;4959764;28;20034;-77
2021/04/09 07:07:18;;;;;;;18.00;4.70;;;;;;;16.22;39.15;101210.22;4960698;28;20057;-84
2021/04/09 07:09:44;;;;;;;;;;;;;;;16.11;38.92;101209.88;4962085;28;20031;-78
2021/04/09 07:12:24;;;;;;;20.65;5.22;;;;;;;16.40;38.97;101208.09;4959127;28;19924;-80
2021/04/09 07:14:57;;;;;;;12.20;4.65;;;;;;;16.51;38.44;101207.31;4960217;28;20843;-83
2021/04/09 07:17:28;;;;;;;14.68;5.80;;;;;;;16.38;38.80;101217.50;4959203;28;20062;-83
2021/04/09 07:20:23;;;;;;;20.60;6.30;;;;;;;16.43;38.52;101222.03;4962900;28;20023;-81
2021/04/09 07:23:00;;;;;;;27.40;11.50;;;;;;;16.37;38.31;101223.38;4964273;28;20035;-80
2021/04/09 07:25:39;;;;;;;11.93;5.22;;;;;;;16.48;38.14;101223.75;4962853;28;20121;-78
2021/04/09 07:28:22;;;;;;;16.80;6.50;;;;;;;16.35;38.10;101226.47;4962565;28;20101;-80
2021/04/09 07:30:50;;;;;;;14.82;5.30;;;;;;;16.44;37.66;101226.38;4965939;28;20027;-78
2021/04/09 07:33:17;;;;;;;19.25;7.80;;;;;;;16.53;37.33;101223.53;4962384;28;20062;-83
2021/04/09 07:35:57;;;;;;;15.95;4.35;;;;;;;16.25;37.88;101226.91;4967431;28;20043;-76
2021/04/09 07:38:33;;;;;;;12.50;5.20;;;;;;;16.25;37.53;101226.91;4973502;28;20054;-77
2021/04/09 07:41:03;;;;;;;13.45;5.40;;;;;;;16.43;37.41;101222.03;4973419;28;20087;-79
2021/04/09 07:43:30;;;;;;;14.43;9.70;;;;;;;16.45;37.37;101233.50;4970799;28;20081;-83
2021/04/09 07:45:58;;;;;;;13.27;4.38;;;;;;;16.54;37.06;101230.66;4972774;28;20391;-79
2021/04/09 07:48:31;;;;;;;11.57;4.75;;;;;;;16.83;36.89;101226.94;4971817;28;20105;-84
2021/04/09 07:50:57;;;;;;;14.43;4.93;;;;;;;17.08;36.60;101225.84;4970761;28;20497;-77
2021/04/09 07:53:29;;;;;;;13.68;4.85;;;;;;;17.03;36.06;101237.09;4971109;28;20027;-78
2021/04/09 07:56:08;;;;;;;12.82;2.65;;;;;;;17.11;35.39;101236.16;4970850;28;20034;-81
2021/04/09 07:58:35;;;;;;;19.17;4.32;;;;;;;17.25;35.77;101243.31;4972151;28;20138;-82
2021/04/09 08:01:01;;;;;;;16.83;4.53;;;;;;;17.41;35.62;101230.41;4972012;28;20027;-80
2021/04/09 08:03:37;;;;;;;17.05;4.55;;;;;;;17.45;35.45;101234.88;4971990;28;20457;-78
2021/04/09 08:06:14;;;;;;;11.93;3.17;;;;;;;17.53;34.71;101241.41;4972060;28;20073;-80
2021/04/09 08:08:56;;;;;;;23.48;12.38;;;;;;;17.61;35.10;101223.13;4971223;28;20413;-80
2021/04/09 08:11:32;;;;;;;12.68;2.95;;;;;;;17.46;34.49;101227.41;4971643;28;20057;-79
2021/04/09 08:14:12;;;;;;;40.58;6.70;;;;;;;17.66;35.00;101231.97;4970738;28;20023;-82
2021/04/09 08:16:44;;;;;;;20.40;4.65;;;;;;;17.84;34.52;101240.03;4968317;28;20077;-76
2021/04/09 08:19:21;;;;;;;28.00;8.45;;;;;;;18.04;34.45;101244.56;4968443;28;20042;-81
2021/04/09 08:21:57;;;;;;;24.05;5.65;;;;;;;18.29;34.19;101242.50;4964202;28;20025;-76
2021/04/09 08:24:27;;;;;;;9.40;2.50;;;;;;;18.24;34.20;101251.84;4963436;28;20382;-77
2021/04/09 08:26:53;;;;;;;9.98;2.55;;;;;;;18.36;33.46;101253.75;4963888;28;20015;-76
2021/04/09 08:29:20;;;;;;;12.18;3.22;;;;;;;18.16;33.28;101258.34;4961106;28;20565;-82
2021/04/09 08:31:47;;;;;;;8.80;2.95;;;;;;;18.42;33.08;101251.53;4962096;28;20034;-81
2021/04/09 08:34:17;;;;;;;13.73;3.83;;;;;;;18.39;33.07;101247.53;4959144;28;20714;-77
2021/04/09 08:36:43;;;;;;;19.15;4.18;;;;;;;18.31;33.20;101254.00;4960631;28;20442;-76
2021/04/09 08:39:15;;;;;;;19.67;6.75;;;;;;;18.53;32.86;101253.44;4956081;28;20123;-77
2021/04/09 08:41:42;;;;;;;41.42;11.45;;;;;;;18.58;32.94;101255.94;4955647;28;20078;-79
2021/04/09 08:44:10;;;;;;;12.95;4.55;;;;;;;18.44;33.23;101261.09;4959856;28;20077;-79
2021/04/09 08:46:36;;;;;;;13.32;4.13;;;;;;;18.18;33.23;101260.75;4969102;28;20038;-81
2021/04/09 08:49:04;;;;;;;16.73;5.75;;;;;;;17.94;33.38;101261.66;4963304;28;20394;-77
2021/04/09 08:51:31;;;;;;;11.35;4.00;;;;;;;18.32;32.90;101252.06;4959001;28;20031;-78
2021/04/09 08:54:20;;;;;;;10.77;3.40;;;;;;;18.35;32.89;101256.88;4953372;28;20110;-82
2021/04/09 08:56:46;;;;;;;12.20;3.78;;;;;;;18.61;32.56;101259.16;4953581;28;20027;-80
2021/04/09 08:59:12;;;;;;;21.13;4.47;;;;;;;18.61;32.43;101264.72;4953397;28;20501;-76
2021/04/09 09:01:38;;;;;;;14.05;3.80;;;;;;;18.45;32.72;101271.00;4961559;28;20027;-80
2021/04/09 09:04:22;;;;;;;12.88;4.00;;;;;;;18.62;32.94;101267.13;4972635;28;20030;-82
2021/04/09 09:06:49;;;;;;;18.98;5.47;;;;;;;18.75;32.52;101265.91;4972070;28;20030;-77
2021/04/09 09:09:32;;;;;;;54.85;11.25;;;;;;;18.73;32.68;101264.66;4971659;28;20031;-79
2021/04/09 09:12:02;;;;;;;10.20;3.30;;;;;;;18.66;32.82;101268.03;4964998;28;20027;-80
2021/04/09 09:14:36;;;;;;;16.92;3.42;;;;;;;18.37;33.05;101265.66;4955354;28;20085;-79
2021/04/09 09:17:20;;;;;;;10.05;2.00;;;;;;;18.41;32.83;101267.34;4956097;28;20027;-77
2021/04/09 09:20:10;;;;;;;29.73;7.25;;;;;;;18.75;32.28;101267.88;4956369;28;20462;-77
2021/04/09 09:22:51;;;;;;;13.75;3.67;;;;;;;18.64;32.04;101264.78;4955482;28;20039;-82
2021/04/09 09:25:31;;;;;;;14.50;3.22;;;;;;;18.84;31.80;101272.09;4955265;28;20437;-78
2021/04/09 09:27:56;;;;;;;17.33;3.47;;;;;;;19.03;31.80;101267.78;4954639;28;20035;-76
2021/04/09 09:30:38;;;;;;;24.92;10.57;;;;;;;18.82;31.87;101271.63;4955164;28;20030;-77
2021/04/09 09:33:25;;;;;;;16.73;4.90;;;;;;;18.96;31.57;101270.38;4954702;28;20049;-79
2021/04/09 09:35:53;;;;;;;40.90;7.63;;;;;;;19.05;31.81;101273.78;4955312;28;20769;-78
2021/04/09 09:38:45;;;;;;;9.15;2.40;;;;;;;19.09;31.31;101269.13;4955645;28;20042;-77
2021/04/09 09:41:31;;;;;;;10.13;2.40;;;;;;;18.96;32.08;101281.44;4951157;28;20083;-78
2021/04/09 09:43:57;;;;;;;11.40;2.70;;;;;;;19.24;31.55;101276.63;4955517;28;20977;-77
2021/04/09 09:46:59;;;;;;;14.05;2.80;;;;;;;19.11;30.47;101281.44;4955521;28;20062;-81
2021/04/09 09:49:27;;;;;;;5.70;2.08;;;;;;;19.20;30.91;101286.03;4956182;28;20045;-78
2021/04/09 09:51:53;;;;;;;16.75;5.05;;;;;;;19.00;30.90;101287.91;4956877;28;20073;-81
2021/04/09 09:54:26;;;;;;;22.48;5.40;;;;;;;19.22;31.19;101290.03;4955457;28;20026;-81
2021/04/09 09:56:52;;;;;;;25.08;4.28;;;;;;;19.18;31.27;101294.69;4955319;28;20466;-77
2021/04/09 09:59:20;;;;;;;7.97;2.63;;;;;;;19.18;31.66;101294.69;4955816;28;20038;-77
2021/04/09 10:01:53;;;;;;;23.35;4.90;;;;;;;19.08;31.31;101296.03;4954956;28;20058;-77
2021/04/09 10:04:19;;;;;;;7.90;2.42;;;;;;;19.01;31.68;101297.81;4955925;28;20026;-80
2021/04/09 10:06:51;;;;;;;12.93;3.83;;;;;;;19.24;31.55;101300.75;4963824;28;20085;-81
2021/04/09 10:09:31;;;;;;;12.02;2.63;;;;;;;18.95;31.71;101299.22;4957831;28;20053;-79
2021/04/09 10:11:59;;;;;;;12.82;3.58;;;;;;;18.97;30.63;101297.75;4955640;28;20034;-77
2021/04/09 10:14:29;;;;;;;27.45;5.68;;;;;;;19.16;30.95;101291.47;4955557;28;20144;-77
2021/04/09 10:16:58;;;;;;;25.08;5.30;;;;;;;19.35;30.33;101299.88;4955057;28;20091;-77
2021/04/09 10:19:24;;;;;;;8.10;1.98;;;;;;;19.15;31.06;101298.19;4955220;28;20079;-79
2021/04/09 10:21:52;;;;;;;10.75;2.45;;;;;;;19.07;31.61;101305.50;4955793;28;20577;-78
2021/04/09 10:24:21;;;;;;;12.45;2.00;;;;;;;19.33;31.24;101310.50;4956324;28;20050;-80
2021/04/09 10:26:52;;;;;;;13.55;3.33;;;;;;;19.35;31.14;101316.50;4954809;28;20062;-77
2021/04/09 10:29:25;;;;;;;10.80;3.25;;;;;;;19.49;31.49;101313.25;4955366;28;20110;-81
2021/04/09 10:31:52;;;;;;;8.63;2.03;;;;;;;19.46;31.44;101313.16;4955537;28;20031;-79
2021/04/09 10:34:22;;;;;;;13.15;3.08;;;;;;;19.58;31.05;101318.66;4956433;28;20397;-77
2021/04/09 10:36:48;;;;;;;14.75;4.00;;;;;;;19.24;31.91;101320.97;4956091;28;20019;-81
2021/04/09 10:39:17;;;;;;;12.55;3.63;;;;;;;18.78;32.40;101320.56;4954530;28;20038;-78
2021/04/09 10:41:57;;;;;;;18.75;5.50;;;;;;;18.92;32.77;101322.09;4953597;28;20019;-81
2021/04/09 10:44:25;;;;;;;7.03;1.75;;;;;;;18.88;33.08;101326.72;4955976;28;20022;-77
2021/04/09 10:46:57;;;;;;;12.68;2.33;;;;;;;18.90;31.85;101328.00;4954738;28;20046;-77
2021/04/09 10:49:25;;;;;;;18.65;3.55;;;;;;;18.71;31.84;101336.19;4955016;28;20062;-77
2021/04/09 10:52:02;;;;;;;12.85;3.20;;;;;;;19.19;31.94;101323.97;4954916;28;20105;-79
2021/04/09 10:54:30;;;;;;;6.60;1.63;;;;;;;19.07;32.01;101319.34;4955790;28;20023;-77
2021/04/09 10:56:58;;;;;;;6.55;1.65;;;;;;;18.99;31.85;101325.88;4959071;28;20533;-80
2021/04/09 10:59:32;;;;;;;9.20;2.75;;;;;;;19.32;30.62;101327.47;4958504;28;20018;-79
2021/04/09 11:01:59;;;;;;;3.40;1.40;;;;;;;18.84;30.90;101324.69;4959846;28;20891;-81
2021/04/09 11:04:26;;;;;;;7.35;1.83;;;;;;;18.69;30.68;101338.50;4959234;28;20045;-77
2021/04/09 11:07:03;;;;;;;8.30;2.03;;;;;;;18.74;30.46;101329.91;4957933;28;20031;-77
2021/04/09 11:09:47;;;;;;;6.80;1.77;;;;;;;18.38;30.51;101328.09;4959438;28;20113;-79
2021/04/09 11:12:29;;;;;;;4.90;1.50;;;;;;;18.63;30.36;101320.50;4958198;28;20026;-78
2021/04/09 11:15:16;;;;;;;9.27;1.48;;;;;;;18.46;29.89;101330.72;4958357;28;20069;-79
2021/04/09 11:18:00;;;;;;;9.13;1.83;;;;;;;18.76;29.96;101324.84;4957176;28;20062;-79
2021/04/09 11:20:28;;;;;;;7.90;2.22;;;;;;;18.83;30.64;101334.16;4958442;28;20397;-79
2021/04/09 11:23:14;;;;;;;8.73;2.53;;;;;;;18.86;30.58;101329.88;4958258;28;20166;-80
2021/04/09 11:25:47;;;;;;;11.52;2.72;;;;;;;18.84;30.54;101329.41;4966005;28;20031;-76
2021/04/09 11:28:30;;;;;;;9.93;2.20;;;;;;;19.11;30.99;101331.31;4971884;28;20135;-78
2021/04/09 11:30:57;;;;;;;6.20;1.77;;;;;;;19.12;30.25;101332.13;4972933;28;20105;-82